createdAt,value
2022-09-27T00:00:00.385Z,23.7
2022-09-27T00:01:02.435Z,23.0
2022-09-27T00:02:00.435Z,23.0
2022-09-27T00:03:00.364Z,23.0
2022-09-27T00:04:00.528Z,23.0
2022-09-27T00:05:00.290Z,23.0
2022-09-27T00:06:01.118Z,22.4
2022-09-27T00:07:00.236Z,22.4
2022-09-27T00:08:00.616Z,22.4
2022-09-27T00:09:00.225Z,22.4
2022-09-27T00:10:00.257Z,22.4
2022-09-27T00:11:01.536Z,22.6
2022-09-27T00:12:00.534Z,22.6
2022-09-27T00:13:00.234Z,22.6
2022-09-27T00:14:00.862Z,22.6
2022-09-27T00:15:00.240Z,22.6
2022-09-27T00:16:02.442Z,21.3
2022-09-27T00:17:00.258Z,21.3
2022-09-27T00:18:00.260Z,21.3
2022-09-27T00:19:01.947Z,21.3
2022-09-27T00:20:01.181Z,21.3
2022-09-27T00:21:10.413Z,21.8
2022-09-27T00:22:00.262Z,21.8
2022-09-27T00:23:00.231Z,21.8
2022-09-27T00:24:00.531Z,21.8
2022-09-27T00:25:00.324Z,21.8
2022-09-27T00:26:00.699Z,20.7
2022-09-27T00:27:00.374Z,20.7
2022-09-27T00:28:00.418Z,20.7
2022-09-27T00:29:00.269Z,20.7
2022-09-27T00:30:00.278Z,20.7
2022-09-27T00:31:00.790Z,20.1
2022-09-27T00:32:00.436Z,20.1
2022-09-27T00:33:00.252Z,20.1
2022-09-27T00:34:01.427Z,20.1
2022-09-27T00:35:00.241Z,20.1
2022-09-27T00:36:05.032Z,20.3
2022-09-27T00:37:00.233Z,20.3
2022-09-27T00:38:00.221Z,20.3
2022-09-27T00:39:00.463Z,20.3
2022-09-27T00:40:00.414Z,20.3
2022-09-27T00:41:00.350Z,20.7
2022-09-27T00:42:00.291Z,20.7
2022-09-27T00:43:00.341Z,20.7
2022-09-27T00:44:03.459Z,20.7
2022-09-27T00:45:05.279Z,20.7
2022-09-27T00:46:03.267Z,20.4
2022-09-27T00:47:07.706Z,20.4
2022-09-27T00:48:04.692Z,20.4
2022-09-27T00:49:16.437Z,20.4
2022-09-27T00:50:18.925Z,20.4
2022-09-27T00:51:03.934Z,19.4
2022-09-27T00:52:04.082Z,19.4
2022-09-27T00:53:08.001Z,19.4
2022-09-27T00:54:00.462Z,19.4
2022-09-27T00:55:05.993Z,19.4
2022-09-27T00:56:03.927Z,19.3
2022-09-27T00:57:01.595Z,19.3
2022-09-27T00:58:01.760Z,19.3
2022-09-27T00:59:05.836Z,19.3
2022-09-27T01:00:04.931Z,19.3
2022-09-27T01:01:04.954Z,19.0
2022-09-27T01:02:03.387Z,19.0
2022-09-27T01:03:04.931Z,19.0
2022-09-27T01:04:04.782Z,19.0
2022-09-27T01:05:00.258Z,19.0
2022-09-27T01:06:00.547Z,19.7
2022-09-27T01:07:00.280Z,19.7
2022-09-27T01:08:00.304Z,19.7
2022-09-27T01:09:00.615Z,19.7
2022-09-27T01:10:01.227Z,19.7
2022-09-27T01:11:11.693Z,20.7
2022-09-27T01:12:10.046Z,20.7
2022-09-27T01:13:10.176Z,20.7
2022-09-27T01:14:20.125Z,20.7
2022-09-27T01:15:20.151Z,20.7
2022-09-27T01:16:17.567Z,19.6
2022-09-27T01:17:01.244Z,19.6
2022-09-27T01:18:08.661Z,19.6
2022-09-27T01:19:20.172Z,19.6
2022-09-27T01:20:20.130Z,19.6
2022-09-27T01:21:11.217Z,21.3
2022-09-27T01:22:08.135Z,21.3
2022-09-27T01:23:10.166Z,21.3
2022-09-27T01:24:20.141Z,21.3
2022-09-27T01:25:11.283Z,21.3
2022-09-27T01:26:12.020Z,21.0
2022-09-27T01:27:11.201Z,21.0
2022-09-27T01:28:12.408Z,21.0
2022-09-27T01:29:10.154Z,21.0
2022-09-27T01:30:14.038Z,21.0
2022-09-27T01:31:10.204Z,20.7
2022-09-27T01:32:11.010Z,20.7
2022-09-27T01:33:10.189Z,20.7
2022-09-27T01:34:08.589Z,20.7
2022-09-27T01:35:19.149Z,20.7
2022-09-27T01:36:10.182Z,20.7
2022-09-27T01:37:14.790Z,20.7
2022-09-27T01:38:20.130Z,20.7
2022-09-27T01:39:17.788Z,20.7
2022-09-27T01:40:09.497Z,20.7
2022-09-27T01:41:12.256Z,20.3
2022-09-27T01:42:15.588Z,20.3
2022-09-27T01:43:07.057Z,20.3
2022-09-27T01:44:09.952Z,20.3
2022-09-27T01:45:06.370Z,20.3
2022-09-27T01:46:07.568Z,20.0
2022-09-27T01:47:03.465Z,20.0
2022-09-27T01:48:06.443Z,20.0
2022-09-27T01:49:07.195Z,20.0
2022-09-27T01:50:05.467Z,20.0
2022-09-27T01:51:09.279Z,19.9
2022-09-27T01:52:04.530Z,19.9
2022-09-27T01:53:10.179Z,19.9
2022-09-27T01:54:03.021Z,19.9
2022-09-27T01:55:03.544Z,19.9
2022-09-27T01:56:05.209Z,20.3
2022-09-27T01:57:02.813Z,20.3
2022-09-27T01:58:13.527Z,20.3
2022-09-27T01:59:12.229Z,20.3
2022-09-27T02:00:05.051Z,20.3
2022-09-27T02:01:01.706Z,19.4
2022-09-27T02:02:07.205Z,19.4
2022-09-27T02:03:08.104Z,19.4
2022-09-27T02:04:03.777Z,19.4
2022-09-27T02:05:04.166Z,19.4
2022-09-27T02:06:06.857Z,19.2
2022-09-27T02:07:11.855Z,19.2
2022-09-27T02:08:07.521Z,19.2
2022-09-27T02:09:14.953Z,19.2
2022-09-27T02:10:07.043Z,19.2
2022-09-27T02:11:05.344Z,18.7
2022-09-27T02:12:05.535Z,18.7
2022-09-27T02:13:18.017Z,18.7
2022-09-27T02:14:10.395Z,18.7
2022-09-27T02:15:05.759Z,18.7
2022-09-27T02:16:10.214Z,19.5
2022-09-27T02:17:20.151Z,19.5
2022-09-27T02:18:06.673Z,19.5
2022-09-27T02:19:11.293Z,19.5
2022-09-27T02:20:11.707Z,19.5
2022-09-27T02:21:04.555Z,18.3
2022-09-27T02:22:20.139Z,18.3
2022-09-27T02:23:10.199Z,18.3
2022-09-27T02:24:03.852Z,18.3
2022-09-27T02:25:12.704Z,18.3
2022-09-27T02:26:07.374Z,18.5
2022-09-27T02:27:08.442Z,18.5
2022-09-27T02:28:11.209Z,18.5
2022-09-27T02:29:07.190Z,18.5
2022-09-27T02:30:06.940Z,18.5
2022-09-27T02:31:00.754Z,18.4
2022-09-27T02:32:00.724Z,18.4
2022-09-27T02:33:01.162Z,18.4
2022-09-27T02:34:06.391Z,18.4
2022-09-27T02:35:05.868Z,18.4
2022-09-27T02:36:00.423Z,18.1
2022-09-27T02:37:00.582Z,18.1
2022-09-27T02:38:02.869Z,18.1
2022-09-27T02:39:00.255Z,18.1
2022-09-27T02:40:00.562Z,18.1
2022-09-27T02:41:00.281Z,18.5
2022-09-27T02:42:00.743Z,18.5
2022-09-27T02:43:03.164Z,18.5
2022-09-27T02:44:03.680Z,18.5
2022-09-27T02:45:01.798Z,18.5
2022-09-27T02:46:13.518Z,18.6
2022-09-27T02:47:20.141Z,18.6
2022-09-27T02:48:16.568Z,18.6
2022-09-27T02:49:07.192Z,18.6
2022-09-27T02:50:11.354Z,18.6
2022-09-27T02:51:11.253Z,17.8
2022-09-27T02:52:20.128Z,17.8
2022-09-27T02:53:10.197Z,17.8
2022-09-27T02:54:10.980Z,17.8
2022-09-27T02:55:10.236Z,17.8
2022-09-27T02:56:08.857Z,18.7
2022-09-27T02:57:17.663Z,18.7
2022-09-27T02:58:20.164Z,18.7
2022-09-27T02:59:20.183Z,18.7
2022-09-27T03:00:08.930Z,18.7
2022-09-27T03:01:11.473Z,17.3
2022-09-27T03:02:13.837Z,17.3
2022-09-27T03:03:06.803Z,17.3
2022-09-27T03:04:08.935Z,17.3
2022-09-27T03:05:14.500Z,17.3
2022-09-27T03:06:08.116Z,18.0
2022-09-27T03:07:01.437Z,18.0
2022-09-27T03:08:00.415Z,18.0
2022-09-27T03:09:00.261Z,18.0
2022-09-27T03:10:00.399Z,18.0
2022-09-27T03:11:00.293Z,17.7
2022-09-27T03:12:00.514Z,17.7
2022-09-27T03:13:00.804Z,17.7
2022-09-27T03:14:09.178Z,17.7
2022-09-27T03:15:00.363Z,17.7
2022-09-27T03:16:01.728Z,18.1
2022-09-27T03:17:00.428Z,18.1
2022-09-27T03:18:01.137Z,18.1
2022-09-27T03:19:00.251Z,18.1
2022-09-27T03:20:00.369Z,18.1
2022-09-27T03:21:00.277Z,17.7
2022-09-27T03:22:00.242Z,17.7
2022-09-27T03:23:00.242Z,17.7
2022-09-27T03:24:00.780Z,17.7
2022-09-27T03:25:00.872Z,17.7
2022-09-27T03:26:00.226Z,18.4
2022-09-27T03:27:00.214Z,18.4
2022-09-27T03:28:00.509Z,18.4
2022-09-27T03:29:00.214Z,18.4
2022-09-27T03:30:00.336Z,18.4
2022-09-27T03:31:00.314Z,17.2
2022-09-27T03:32:00.858Z,17.2
2022-09-27T03:33:00.320Z,17.2
2022-09-27T03:34:00.225Z,17.2
2022-09-27T03:35:00.335Z,17.2
2022-09-27T03:36:00.507Z,17.2
2022-09-27T03:37:00.312Z,17.2
2022-09-27T03:38:00.421Z,17.2
2022-09-27T03:39:00.239Z,17.2
2022-09-27T03:40:00.412Z,17.2
2022-09-27T03:41:00.309Z,17.3
2022-09-27T03:42:00.322Z,17.3
2022-09-27T03:43:00.283Z,17.3
2022-09-27T03:44:00.384Z,17.3
2022-09-27T03:45:00.293Z,17.3
2022-09-27T03:46:00.475Z,18.5
2022-09-27T03:47:00.214Z,18.5
2022-09-27T03:48:00.441Z,18.5
2022-09-27T03:49:00.238Z,18.5
2022-09-27T03:50:00.252Z,18.5
2022-09-27T03:51:00.241Z,18.6
2022-09-27T03:52:00.418Z,18.6
2022-09-27T03:53:00.378Z,18.6
2022-09-27T03:54:00.268Z,18.6
2022-09-27T03:55:02.298Z,18.6
2022-09-27T03:56:00.597Z,17.9
2022-09-27T03:57:00.319Z,17.9
2022-09-27T03:58:00.953Z,17.9
2022-09-27T03:59:00.291Z,17.9
2022-09-27T04:00:00.456Z,17.9
2022-09-27T04:01:00.272Z,18.4
2022-09-27T04:02:00.515Z,18.4
2022-09-27T04:03:00.217Z,18.4
2022-09-27T04:04:00.474Z,18.4
2022-09-27T04:05:00.243Z,18.4
2022-09-27T04:06:00.386Z,17.9
2022-09-27T04:07:00.224Z,17.9
2022-09-27T04:08:00.417Z,17.9
2022-09-27T04:09:00.579Z,17.9
2022-09-27T04:10:00.267Z,17.9
2022-09-27T04:11:00.262Z,18.0
2022-09-27T04:12:00.454Z,18.0
2022-09-27T04:13:00.247Z,18.0
2022-09-27T04:14:00.231Z,18.0
2022-09-27T04:15:00.452Z,18.0
2022-09-27T04:16:00.411Z,17.9
2022-09-27T04:17:00.399Z,17.9
2022-09-27T04:18:00.238Z,17.9
2022-09-27T04:19:00.275Z,17.9
2022-09-27T04:20:00.455Z,17.9
2022-09-27T04:21:00.270Z,18.3
2022-09-27T04:22:00.367Z,18.3
2022-09-27T04:23:00.311Z,18.3
2022-09-27T04:24:00.469Z,18.3
2022-09-27T04:25:00.234Z,18.3
2022-09-27T04:26:00.308Z,18.6
2022-09-27T04:27:00.224Z,18.6
2022-09-27T04:28:00.520Z,18.6
2022-09-27T04:29:00.223Z,18.6
2022-09-27T04:30:00.531Z,18.6
2022-09-27T04:31:00.348Z,18.2
2022-09-27T04:32:00.478Z,18.2
2022-09-27T04:33:00.239Z,18.2
2022-09-27T04:34:00.285Z,18.2
2022-09-27T04:35:00.231Z,18.2
2022-09-27T04:36:00.402Z,18.2
2022-09-27T04:37:00.246Z,18.2
2022-09-27T04:38:00.242Z,18.2
2022-09-27T04:39:02.686Z,18.2
2022-09-27T04:40:00.411Z,18.2
2022-09-27T04:41:00.291Z,18.0
2022-09-27T04:42:00.227Z,18.0
2022-09-27T04:43:00.729Z,18.0
2022-09-27T04:44:00.970Z,18.0
2022-09-27T04:45:00.262Z,18.0
2022-09-27T04:46:00.337Z,17.5
2022-09-27T04:47:00.458Z,17.5
2022-09-27T04:48:00.382Z,17.5
2022-09-27T04:49:00.546Z,17.5
2022-09-27T04:50:00.231Z,17.5
2022-09-27T04:51:01.481Z,18.0
2022-09-27T04:52:00.445Z,18.0
2022-09-27T04:53:00.471Z,18.0
2022-09-27T04:54:00.386Z,18.0
2022-09-27T04:55:00.271Z,18.0
2022-09-27T04:56:00.439Z,17.5
2022-09-27T04:57:00.246Z,17.5
2022-09-27T04:58:00.284Z,17.5
2022-09-27T04:59:00.232Z,17.5
2022-09-27T05:00:00.468Z,17.5
2022-09-27T05:01:01.020Z,17.8
2022-09-27T05:02:00.268Z,17.8
2022-09-27T05:03:00.305Z,17.8
2022-09-27T05:04:00.715Z,17.8
2022-09-27T05:05:00.288Z,17.8
2022-09-27T05:06:00.514Z,17.9
2022-09-27T05:07:00.230Z,17.9
2022-09-27T05:08:00.499Z,17.9
2022-09-27T05:09:00.231Z,17.9
2022-09-27T05:10:00.261Z,17.9
2022-09-27T05:11:00.230Z,17.6
2022-09-27T05:12:00.772Z,17.6
2022-09-27T05:13:00.216Z,17.6
2022-09-27T05:14:00.253Z,17.6
2022-09-27T05:15:00.331Z,17.6
2022-09-27T05:16:03.530Z,16.8
2022-09-27T05:17:00.347Z,16.8
2022-09-27T05:18:00.257Z,16.8
2022-09-27T05:19:00.220Z,16.8
2022-09-27T05:20:00.407Z,16.8
2022-09-27T05:21:00.237Z,17.3
2022-09-27T05:22:00.983Z,17.3
2022-09-27T05:23:00.410Z,17.3
2022-09-27T05:24:00.400Z,17.3
2022-09-27T05:25:00.220Z,17.3
2022-09-27T05:26:05.399Z,17.7
2022-09-27T05:27:01.102Z,17.7
2022-09-27T05:28:00.919Z,17.7
2022-09-27T05:29:00.252Z,17.7
2022-09-27T05:30:00.247Z,17.7
2022-09-27T05:31:01.039Z,18.4
2022-09-27T05:32:01.464Z,18.4
2022-09-27T05:33:00.216Z,18.4
2022-09-27T05:34:00.263Z,18.4
2022-09-27T05:35:00.364Z,18.4
2022-09-27T05:36:00.374Z,18.4
2022-09-27T05:37:00.233Z,18.4
2022-09-27T05:38:00.328Z,18.4
2022-09-27T05:39:00.228Z,18.4
2022-09-27T05:40:08.510Z,18.4
2022-09-27T05:41:00.371Z,17.6
2022-09-27T05:42:00.343Z,17.6
2022-09-27T05:43:00.239Z,17.6
2022-09-27T05:44:00.410Z,17.6
2022-09-27T05:45:00.722Z,17.6
2022-09-27T05:46:00.313Z,17.8
2022-09-27T05:47:00.929Z,17.8
2022-09-27T05:48:00.418Z,17.8
2022-09-27T05:49:00.370Z,17.8
2022-09-27T05:50:00.909Z,17.8
2022-09-27T05:51:00.226Z,18.1
2022-09-27T05:52:00.490Z,18.1
2022-09-27T05:53:00.363Z,18.1
2022-09-27T05:54:00.229Z,18.1
2022-09-27T05:55:00.390Z,18.1
2022-09-27T05:56:02.007Z,18.1
2022-09-27T05:57:00.351Z,18.1
2022-09-27T05:58:02.634Z,18.1
2022-09-27T05:59:00.229Z,18.1
2022-09-27T06:00:00.347Z,18.1
2022-09-27T06:01:00.315Z,18.6
2022-09-27T06:02:00.298Z,18.6
2022-09-27T06:03:02.725Z,18.6
2022-09-27T06:04:01.556Z,18.6
2022-09-27T06:05:00.222Z,18.6
2022-09-27T06:06:03.221Z,17.9
2022-09-27T06:07:00.221Z,17.9
2022-09-27T06:08:02.660Z,17.9
2022-09-27T06:10:00.255Z,17.9
2022-09-27T06:11:02.112Z,18.5
2022-09-27T06:12:00.424Z,18.5
2022-09-27T06:13:03.430Z,18.5
2022-09-27T06:14:00.214Z,18.5
2022-09-27T06:15:00.217Z,18.5
2022-09-27T06:16:00.481Z,18.3
2022-09-27T06:17:00.420Z,18.3
2022-09-27T06:18:04.218Z,18.3
2022-09-27T06:19:00.247Z,18.3
2022-09-27T06:20:00.390Z,18.3
2022-09-27T06:21:01.686Z,18.5
2022-09-27T06:22:00.234Z,18.5
2022-09-27T06:23:06.086Z,18.5
2022-09-27T06:24:00.414Z,18.5
2022-09-27T06:25:00.343Z,18.5
2022-09-27T06:26:01.600Z,18.2
2022-09-27T06:27:00.221Z,18.2
2022-09-27T06:28:00.517Z,18.2
2022-09-27T06:29:00.329Z,18.2
2022-09-27T06:30:00.245Z,18.2
2022-09-27T06:31:00.337Z,17.8
2022-09-27T06:32:00.409Z,17.8
2022-09-27T06:33:01.538Z,17.8
2022-09-27T06:34:00.406Z,17.8
2022-09-27T06:35:00.241Z,17.8
2022-09-27T06:36:01.712Z,16.9
2022-09-27T06:37:00.247Z,16.9
2022-09-27T06:38:03.587Z,16.9
2022-09-27T06:39:00.244Z,16.9
2022-09-27T06:40:00.514Z,16.9
2022-09-27T06:41:02.378Z,16.8
2022-09-27T06:42:00.218Z,16.8
2022-09-27T06:43:03.256Z,16.8
2022-09-27T06:44:00.391Z,16.8
2022-09-27T06:45:00.227Z,16.8
2022-09-27T06:46:01.599Z,16.8
2022-09-27T06:47:00.231Z,16.8
2022-09-27T06:48:01.426Z,16.8
2022-09-27T06:49:00.219Z,16.8
2022-09-27T06:50:00.229Z,16.8
2022-09-27T06:51:00.332Z,15.8
2022-09-27T06:52:00.435Z,15.8
2022-09-27T06:53:00.818Z,15.8
2022-09-27T06:54:00.250Z,15.8
2022-09-27T06:55:01.160Z,15.8
2022-09-27T06:56:00.626Z,17.0
2022-09-27T06:57:02.663Z,17.0
2022-09-27T06:58:00.808Z,17.0
2022-09-27T06:59:00.235Z,17.0
2022-09-27T07:00:00.404Z,17.0
2022-09-27T07:01:00.375Z,18.9
2022-09-27T07:02:00.348Z,18.9
2022-09-27T07:03:00.216Z,18.9
2022-09-27T07:04:00.430Z,18.9
2022-09-27T07:05:00.268Z,18.9
2022-09-27T07:06:03.248Z,16.9
2022-09-27T07:07:00.229Z,16.9
2022-09-27T07:08:00.337Z,16.9
2022-09-27T07:09:00.249Z,16.9
2022-09-27T07:10:00.244Z,16.9
2022-09-27T07:11:04.550Z,16.1
2022-09-27T07:12:00.377Z,16.1
2022-09-27T07:13:05.027Z,16.1
2022-09-27T07:14:00.233Z,16.1
2022-09-27T07:15:00.229Z,16.1
2022-09-27T07:16:00.616Z,16.3
2022-09-27T07:17:00.258Z,16.3
2022-09-27T07:18:00.230Z,16.3
2022-09-27T07:19:00.275Z,16.3
2022-09-27T07:20:00.597Z,16.3
2022-09-27T07:21:00.623Z,16.5
2022-09-27T07:22:00.242Z,16.5
2022-09-27T07:23:00.211Z,16.5
2022-09-27T07:24:00.518Z,16.5
2022-09-27T07:25:00.220Z,15.9
2022-09-27T07:26:01.264Z,15.9
2022-09-27T07:27:00.214Z,15.9
2022-09-27T07:28:02.694Z,15.9
2022-09-27T07:29:00.227Z,15.9
2022-09-27T07:30:00.605Z,16.1
2022-09-27T07:31:01.630Z,16.1
2022-09-27T07:32:00.676Z,16.1
2022-09-27T07:33:02.600Z,16.1
2022-09-27T07:34:00.232Z,16.1
2022-09-27T07:35:00.479Z,16.9
2022-09-27T07:36:05.580Z,16.9
2022-09-27T07:37:00.629Z,16.9
2022-09-27T07:38:00.211Z,16.9
2022-09-27T07:39:00.255Z,16.9
2022-09-27T07:40:01.134Z,17.2
2022-09-27T07:41:09.845Z,17.2
2022-09-27T07:42:00.235Z,17.2
2022-09-27T07:43:00.216Z,17.2
2022-09-27T07:44:00.623Z,17.2
2022-09-27T07:45:00.236Z,16.8
2022-09-27T07:46:00.438Z,16.8
2022-09-27T07:47:00.214Z,16.8
2022-09-27T07:48:02.728Z,16.8
2022-09-27T07:49:00.222Z,16.8
2022-09-27T07:50:00.237Z,16.1
2022-09-27T07:51:00.249Z,16.1
2022-09-27T07:52:00.416Z,16.1
2022-09-27T07:53:00.312Z,16.1
2022-09-27T07:54:00.305Z,16.1
2022-09-27T07:55:00.211Z,16.9
2022-09-27T07:56:00.453Z,16.9
2022-09-27T07:57:00.219Z,16.9
2022-09-27T07:58:03.686Z,16.9
2022-09-27T07:59:00.247Z,16.9
2022-09-27T08:00:00.400Z,17.1
2022-09-27T08:01:00.269Z,17.1
2022-09-27T08:02:00.304Z,17.1
2022-09-27T08:03:04.450Z,17.1
2022-09-27T08:04:00.413Z,17.1
2022-09-27T08:05:00.567Z,17.5
2022-09-27T08:06:02.016Z,17.5
2022-09-27T08:07:00.222Z,17.5
2022-09-27T08:08:00.449Z,17.5
2022-09-27T08:09:00.235Z,17.5
2022-09-27T08:10:00.428Z,17.1
2022-09-27T08:11:00.253Z,17.1
2022-09-27T08:12:00.405Z,17.1
2022-09-27T08:13:01.450Z,17.1
2022-09-27T08:14:00.242Z,17.1
2022-09-27T08:15:00.540Z,17.4
2022-09-27T08:16:01.180Z,17.4
2022-09-27T08:17:00.227Z,17.4
2022-09-27T08:18:00.347Z,17.4
2022-09-27T08:19:00.266Z,17.4
2022-09-27T08:20:00.413Z,17.0
2022-09-27T08:21:00.346Z,17.0
2022-09-27T08:22:00.227Z,17.0
2022-09-27T08:23:00.407Z,17.0
2022-09-27T08:24:00.457Z,17.0
2022-09-27T08:25:00.219Z,16.0
2022-09-27T08:26:00.223Z,16.0
2022-09-27T08:27:01.237Z,16.0
2022-09-27T08:28:02.491Z,16.0
2022-09-27T08:29:00.294Z,16.0
2022-09-27T08:30:00.245Z,16.5
2022-09-27T08:31:00.241Z,16.5
2022-09-27T08:32:00.522Z,16.5
2022-09-27T08:33:01.126Z,16.5
2022-09-27T08:34:00.277Z,16.5
2022-09-27T08:35:00.248Z,17.3
2022-09-27T08:36:00.444Z,17.3
2022-09-27T08:37:00.295Z,17.3
2022-09-27T08:38:01.951Z,17.3
2022-09-27T08:39:00.480Z,17.3
2022-09-27T08:40:01.098Z,18.0
2022-09-27T08:41:09.868Z,18.0
2022-09-27T08:42:13.478Z,18.0
2022-09-27T08:43:09.856Z,18.0
2022-09-27T08:44:16.001Z,18.0
2022-09-27T08:45:10.602Z,16.9
2022-09-27T08:46:14.857Z,16.9
2022-09-27T08:47:05.752Z,16.9
2022-09-27T08:48:02.873Z,16.9
2022-09-27T08:49:16.059Z,16.9
2022-09-27T08:50:05.743Z,17.1
2022-09-27T08:51:03.018Z,17.1
2022-09-27T08:52:02.827Z,17.1
2022-09-27T08:53:16.369Z,17.1
2022-09-27T08:54:06.597Z,17.1
2022-09-27T08:55:05.168Z,17.7
2022-09-27T08:56:00.760Z,17.7
2022-09-27T08:57:04.027Z,17.7
2022-09-27T08:58:00.861Z,17.7
2022-09-27T08:59:10.966Z,17.7
2022-09-27T09:00:05.568Z,19.7
2022-09-27T09:01:04.801Z,19.7
2022-09-27T09:02:01.139Z,19.7
2022-09-27T09:03:01.328Z,19.7
2022-09-27T09:04:02.235Z,19.7
2022-09-27T09:05:09.404Z,17.7
2022-09-27T09:06:17.777Z,17.7
2022-09-27T09:07:14.155Z,17.7
2022-09-27T09:08:01.226Z,17.7
2022-09-27T09:09:10.247Z,17.7
2022-09-27T09:10:10.197Z,16.6
2022-09-27T09:11:11.203Z,16.6
2022-09-27T09:12:10.243Z,16.6
2022-09-27T09:13:12.118Z,16.6
2022-09-27T09:14:13.446Z,16.6
2022-09-27T09:15:07.265Z,16.7
2022-09-27T09:16:06.881Z,16.7
2022-09-27T09:17:20.155Z,16.7
2022-09-27T09:18:13.075Z,16.7
2022-09-27T09:19:19.040Z,16.7
2022-09-27T09:20:17.034Z,17.7
2022-09-27T09:21:13.425Z,17.7
2022-09-27T09:22:14.375Z,17.7
2022-09-27T09:23:13.428Z,17.7
2022-09-27T09:24:20.155Z,17.7
2022-09-27T09:25:13.456Z,17.6
2022-09-27T09:26:06.955Z,17.6
2022-09-27T09:27:17.705Z,17.6
2022-09-27T09:28:03.483Z,17.6
2022-09-27T09:29:10.178Z,17.6
2022-09-27T09:30:17.721Z,17.5
2022-09-27T09:31:19.994Z,17.5
2022-09-27T09:32:11.178Z,17.5
2022-09-27T09:33:16.019Z,17.5
2022-09-27T09:34:20.130Z,17.5
2022-09-27T09:35:05.189Z,16.5
2022-09-27T09:36:07.638Z,16.5
2022-09-27T09:37:07.547Z,16.5
2022-09-27T09:38:08.015Z,16.5
2022-09-27T09:39:09.149Z,16.5
2022-09-27T09:40:13.230Z,17.0
2022-09-27T09:41:07.631Z,17.0
2022-09-27T09:42:08.950Z,17.0
2022-09-27T09:43:03.905Z,17.0
2022-09-27T09:44:13.581Z,17.0
2022-09-27T09:45:02.947Z,16.5
2022-09-27T09:46:08.455Z,16.5
2022-09-27T09:47:03.023Z,16.5
2022-09-27T09:48:14.961Z,16.5
2022-09-27T09:49:09.986Z,16.5
2022-09-27T09:50:04.675Z,16.0
2022-09-27T09:51:03.811Z,16.0
2022-09-27T09:52:08.921Z,16.0
2022-09-27T09:53:09.808Z,16.0
2022-09-27T09:54:13.147Z,16.0
2022-09-27T09:55:06.261Z,15.6
2022-09-27T09:56:04.726Z,15.6
2022-09-27T09:57:07.337Z,15.6
2022-09-27T09:58:20.118Z,15.6
2022-09-27T09:59:04.633Z,15.6
2022-09-27T10:00:05.965Z,13.4
2022-09-27T10:01:16.328Z,13.4
2022-09-27T10:02:19.116Z,13.4
2022-09-27T10:03:02.412Z,13.4
2022-09-27T10:04:00.696Z,13.4
2022-09-27T10:05:07.495Z,13.7
2022-09-27T10:06:00.384Z,13.7
2022-09-27T10:07:00.397Z,13.7
2022-09-27T10:08:03.974Z,13.7
2022-09-27T10:09:00.338Z,13.7
2022-09-27T10:10:03.747Z,14.3
2022-09-27T10:11:00.240Z,14.3
2022-09-27T10:12:00.334Z,14.3
2022-09-27T10:13:01.709Z,14.3
2022-09-27T10:14:00.659Z,14.3
2022-09-27T10:15:02.902Z,13.2
2022-09-27T10:16:07.861Z,13.2
2022-09-27T10:17:05.098Z,13.2
2022-09-27T10:18:00.220Z,13.2
2022-09-27T10:19:02.408Z,13.2
2022-09-27T10:20:02.289Z,13.6
2022-09-27T10:21:05.566Z,13.6
2022-09-27T10:22:02.713Z,13.6
2022-09-27T10:23:10.337Z,13.6
2022-09-27T10:24:10.434Z,13.6
2022-09-27T10:25:02.974Z,13.2
2022-09-27T10:26:02.773Z,13.2
2022-09-27T10:27:00.526Z,13.2
2022-09-27T10:28:00.697Z,13.2
2022-09-27T10:29:14.279Z,13.2
2022-09-27T10:30:00.304Z,12.9
2022-09-27T10:31:02.722Z,12.9
2022-09-27T10:32:03.331Z,12.9
2022-09-27T10:33:05.225Z,12.9
2022-09-27T10:34:03.493Z,12.9
2022-09-27T10:35:23.549Z,12.5
2022-09-27T10:36:01.198Z,12.5
2022-09-27T10:37:03.190Z,12.5
2022-09-27T10:38:20.122Z,12.5
2022-09-27T10:39:03.318Z,12.5
2022-09-27T10:40:00.504Z,12.8
2022-09-27T10:41:20.144Z,12.8
2022-09-27T10:42:00.285Z,12.8
2022-09-27T10:43:00.236Z,12.8
2022-09-27T10:44:19.062Z,12.8
2022-09-27T10:45:20.239Z,12.8
2022-09-27T10:46:10.209Z,12.8
2022-09-27T10:47:07.167Z,12.8
2022-09-27T10:48:01.568Z,12.8
2022-09-27T10:49:17.106Z,12.8
2022-09-27T10:50:04.736Z,13.5
2022-09-27T10:51:05.097Z,13.5
2022-09-27T10:52:04.997Z,13.5
2022-09-27T10:53:03.413Z,13.5
2022-09-27T10:54:00.275Z,13.5
2022-09-27T10:55:06.973Z,13.4
2022-09-27T10:56:01.276Z,13.4
2022-09-27T10:57:04.608Z,13.4
2022-09-27T10:58:00.644Z,13.4
2022-09-27T10:59:01.525Z,13.4
2022-09-27T11:00:05.197Z,12.8
2022-09-27T11:01:02.867Z,12.8
2022-09-27T11:02:01.115Z,12.8
2022-09-27T11:03:06.007Z,12.8
2022-09-27T11:04:00.357Z,12.8
2022-09-27T11:05:15.641Z,12.8
2022-09-27T11:06:20.151Z,12.8
2022-09-27T11:07:18.286Z,12.8
2022-09-27T11:08:11.990Z,12.8
2022-09-27T11:09:19.282Z,12.8
2022-09-27T11:10:00.291Z,13.4
2022-09-27T11:11:04.253Z,13.4
2022-09-27T11:12:09.655Z,13.4
2022-09-27T11:13:07.794Z,13.4
2022-09-27T11:14:03.558Z,13.4
2022-09-27T11:15:03.902Z,13.8
2022-09-27T11:16:17.440Z,13.8
2022-09-27T11:17:07.539Z,13.8
2022-09-27T11:18:12.201Z,13.8
2022-09-27T11:19:20.124Z,13.8
2022-09-27T11:20:10.260Z,13.3
2022-09-27T11:21:10.178Z,13.3
2022-09-27T11:22:11.214Z,13.3
2022-09-27T11:23:02.256Z,13.3
2022-09-27T11:24:15.930Z,13.3
2022-09-27T11:25:17.751Z,14.3
2022-09-27T11:26:13.466Z,14.3
2022-09-27T11:27:10.189Z,14.3
2022-09-27T11:28:12.484Z,14.3
2022-09-27T11:29:16.334Z,14.3
2022-09-27T11:30:14.232Z,14.2
2022-09-27T11:31:11.233Z,14.2
2022-09-27T11:32:15.535Z,14.2
2022-09-27T11:33:20.149Z,14.2
2022-09-27T11:34:00.203Z,14.2
2022-09-27T11:35:10.161Z,14.2
2022-09-27T11:36:13.716Z,14.2
2022-09-27T11:37:10.180Z,14.2
2022-09-27T11:38:18.216Z,14.2
2022-09-27T11:39:14.040Z,14.2
2022-09-27T11:40:12.265Z,13.8
2022-09-27T11:41:10.175Z,13.8
2022-09-27T11:42:13.460Z,13.8
2022-09-27T11:43:08.730Z,13.8
2022-09-27T11:44:13.442Z,13.8
2022-09-27T11:45:34.216Z,15.1
2022-09-27T11:46:17.980Z,15.1
2022-09-27T11:47:20.238Z,15.1
2022-09-27T11:48:17.751Z,15.1
2022-09-27T11:49:17.695Z,15.1
2022-09-27T11:50:10.161Z,12.8
2022-09-27T11:51:10.262Z,12.8
2022-09-27T11:52:10.159Z,12.8
2022-09-27T11:53:11.187Z,12.8
2022-09-27T11:54:20.127Z,12.8
2022-09-27T11:55:18.113Z,11.9
2022-09-27T11:56:20.143Z,11.9
2022-09-27T11:57:11.196Z,11.9
2022-09-27T11:58:08.034Z,11.9
2022-09-27T11:59:24.558Z,11.9
2022-09-27T12:00:03.921Z,12.4
2022-09-27T12:01:20.126Z,12.4
2022-09-27T12:02:10.352Z,12.4
2022-09-27T12:03:20.123Z,12.4
2022-09-27T12:04:20.121Z,12.4
2022-09-27T12:05:20.131Z,11.9
2022-09-27T12:06:10.168Z,11.9
2022-09-27T12:07:15.381Z,11.9
2022-09-27T12:08:07.183Z,11.9
2022-09-27T12:09:06.815Z,11.9
2022-09-27T12:10:06.540Z,10.9
2022-09-27T12:11:15.202Z,10.9
2022-09-27T12:12:07.302Z,10.9
2022-09-27T12:13:02.154Z,10.9
2022-09-27T12:14:15.205Z,10.9
2022-09-27T12:15:06.967Z,11.3
2022-09-27T12:16:01.294Z,11.3
2022-09-27T12:17:02.696Z,11.3
2022-09-27T12:18:20.146Z,11.3
2022-09-27T12:19:01.763Z,11.3
2022-09-27T12:20:09.108Z,11.4
2022-09-27T12:21:02.079Z,11.4
2022-09-27T12:22:03.335Z,11.4
2022-09-27T12:23:04.342Z,11.4
2022-09-27T12:24:02.120Z,11.4
2022-09-27T12:25:00.892Z,11.0
2022-09-27T12:26:06.346Z,11.0
2022-09-27T12:27:08.193Z,11.0
2022-09-27T12:28:07.644Z,11.0
2022-09-27T12:29:09.762Z,11.0
2022-09-27T12:30:01.085Z,11.0
2022-09-27T12:31:29.073Z,11.0
2022-09-27T12:32:08.407Z,11.0
2022-09-27T12:33:07.264Z,11.0
2022-09-27T12:34:01.237Z,11.0
2022-09-27T12:35:09.155Z,10.4
2022-09-27T12:36:06.040Z,10.4
2022-09-27T12:37:07.440Z,10.4
2022-09-27T12:38:09.017Z,10.4
2022-09-27T12:39:09.627Z,10.4
2022-09-27T12:40:20.186Z,9.9
2022-09-27T12:41:04.239Z,9.9
2022-09-27T12:42:05.297Z,9.9
2022-09-27T12:43:07.354Z,9.9
2022-09-27T12:44:00.464Z,9.9
2022-09-27T12:45:00.395Z,9.7
2022-09-27T12:46:10.290Z,9.7
2022-09-27T12:47:14.898Z,9.7
2022-09-27T12:48:10.834Z,9.7
2022-09-27T12:49:11.206Z,9.7
2022-09-27T12:50:14.480Z,9.5
2022-09-27T12:51:12.456Z,9.5
2022-09-27T12:52:05.020Z,9.5
2022-09-27T12:53:07.335Z,9.5
2022-09-27T12:54:11.193Z,9.5
2022-09-27T12:55:03.477Z,9.5
2022-09-27T12:56:20.153Z,9.5
2022-09-27T12:57:03.894Z,9.5
2022-09-27T12:58:20.123Z,9.5
2022-09-27T12:59:10.869Z,9.5
2022-09-27T13:00:07.858Z,9.1
2022-09-27T13:01:13.097Z,9.1
2022-09-27T13:02:10.292Z,9.1
2022-09-27T13:03:15.767Z,9.1
2022-09-27T13:04:15.086Z,9.1
2022-09-27T13:05:13.414Z,9.4
2022-09-27T13:06:13.470Z,9.4
2022-09-27T13:07:10.175Z,9.4
2022-09-27T13:08:19.042Z,9.4
2022-09-27T13:09:11.205Z,9.4
2022-09-27T13:10:20.131Z,9.8
2022-09-27T13:11:07.713Z,9.8
2022-09-27T13:12:05.807Z,9.8
2022-09-27T13:13:00.912Z,9.8
2022-09-27T13:14:02.446Z,9.8
2022-09-27T13:15:03.758Z,9.8
2022-09-27T13:16:01.775Z,9.8
2022-09-27T13:17:00.444Z,9.8
2022-09-27T13:18:03.735Z,9.8
2022-09-27T13:19:00.275Z,9.8
2022-09-27T13:20:20.154Z,9.0